Time;durP1;ratioP1;P1;durP2;ratioP2;P2;SDS_P1;SDS_P2;PMS_P1;PMS_P2;Temp;Humidity;BMP_temperature;BMP_pressure;BME280_temperature;BME280_humidity;BME280_pressure;Samples;Min_cycle;Max_cycle;Signal;HPM_P1;HPM_P2
2023/02/24 00:00:30;;;;;;;;;;;;;;;7.49;87.17;99608.33;106777;1278;24298;-59
2023/02/24 00:03:20;;;;;;;;;;;;;;;7.50;87.24;99602.85;106628;1278;24772;-60
2023/02/24 00:05:49;;;;;;;;;;;;;;;7.51;87.30;99593.44;106640;1274;22558;-61
2023/02/24 00:08:19;;;;;;;;;;;;;;;7.53;87.36;99593.13;106683;1278;24297;-61
2023/02/24 00:10:48;;;;;;;;;;;;;;;7.54;87.55;99593.94;106649;1278;22893;-60
2023/02/24 00:13:21;;;;;;;;;;;;;;;7.55;87.50;99594.16;106723;1272;24207;-61
2023/02/24 00:16:01;;;;;;;;;;;;;;;7.55;87.49;99591.85;106626;1278;24184;-59
2023/02/24 00:18:31;;;;;;;;;;;;;;;7.55;87.55;99583.83;106860;1267;25406;-61
2023/02/24 00:21:09;;;;;;;;;;;;;;;7.55;87.63;99578.73;106737;1265;24226;-61
2023/02/24 00:23:39;;;;;;;;;;;;;;;7.56;87.65;99576.06;106694;1276;25523;-61
2023/02/24 00:26:09;;;;;;;;;;;;;;;7.57;87.75;99569.61;106644;1272;22511;-61
2023/02/24 00:28:39;;;;;;;;;;;;;;;7.57;87.80;99564.70;106719;1276;25491;-60
2023/02/24 00:31:10;;;;;;;;;;;;;;;7.57;87.70;99562.75;106730;1278;22494;-61
2023/02/24 00:33:39;;;;;;;;;;;;;;;7.58;87.65;99558.21;106780;1274;22514;-61
2023/02/24 00:36:10;;;;;;;;;;;;;;;7.58;87.61;99556.91;106663;1278;22507;-60
2023/02/24 00:38:43;;;;;;;;;;;;;;;7.59;87.65;99553.29;106742;1278;22514;-61
2023/02/24 00:41:15;;;;;;;;;;;;;;;7.60;87.69;99549.36;106678;1274;25287;-61
2023/02/24 00:43:45;;;;;;;;;;;;;;;7.59;87.51;99551.14;106692;1274;22512;-60
2023/02/24 00:46:16;;;;;;;;;;;;;;;7.60;87.66;99554.42;106769;1271;22507;-58
2023/02/24 00:48:46;;;;;;;;;;;;;;;7.59;87.60;99549.01;106727;1278;24206;-59
2023/02/24 00:51:16;;;;;;;;;;;;;;;7.60;87.64;99550.54;106892;1276;22473;-60
2023/02/24 00:53:46;;;;;;;;;;;;;;;7.60;87.75;99544.02;106765;1278;24251;-62
2023/02/24 00:56:16;;;;;;;;;;;;;;;7.59;87.80;99546.38;106765;1275;22527;-64
2023/02/24 00:58:46;;;;;;;;;;;;;;;7.59;88.02;99543.09;106714;1278;24206;-60
2023/02/24 01:01:17;;;;;;;;;;;;;;;7.58;88.08;99541.45;106829;1278;22508;-61
2023/02/24 01:03:48;;;;;;;;;;;;;;;7.57;88.15;99537.51;106796;1278;22586;-62
2023/02/24 01:06:19;;;;;;;;;;;;;;;7.59;88.25;99533.54;106700;1278;22621;-59
2023/02/24 01:08:49;;;;;;;;;;;;;;;7.60;88.20;99529.02;106642;1271;22530;-61
2023/02/24 01:14:07;;;;;;;;;;;;;;;7.64;88.39;99515.95;106666;1278;23215;-61
2023/02/24 01:16:36;;;;;;;;;;;;;;;7.64;88.37;99518.52;106630;1275;22518;-62
2023/02/24 01:19:06;;;;;;;;;;;;;;;7.63;88.43;99513.16;106701;1278;22624;-61
2023/02/24 01:21:35;;;;;;;;;;;;;;;7.63;88.53;99515.63;106681;1278;22623;-61
2023/02/24 01:24:05;;;;;;;;;;;;;;;7.62;88.62;99506.73;106705;1268;22624;-62
2023/02/24 01:26:34;;;;;;;;;;;;;;;7.61;88.67;99501.83;106648;1278;22516;-59
2023/02/24 01:29:04;;;;;;;;;;;;;;;7.58;88.58;99497.46;106662;1273;22640;-61
2023/02/24 01:31:33;;;;;;;;;;;;;;;7.56;88.60;99501.21;106687;1273;22511;-62
2023/02/24 01:34:04;;;;;;;;;;;;;;;7.56;88.72;99496.81;106719;1278;22514;-61
2023/02/24 01:36:34;;;;;;;;;;;;;;;7.54;88.77;99493.64;106763;1278;24221;-62
2023/02/24 01:39:09;;;;;;;;;;;;;;;7.51;88.92;99489.09;106687;1271;22603;-61
2023/02/24 01:41:40;;;;;;;;;;;;;;;7.49;88.98;99489.86;106683;1274;22516;-60
2023/02/24 01:44:23;;;;;;;;;;;;;;;7.48;89.13;99486.20;106683;1265;23019;-60
2023/02/24 01:46:53;;;;;;;;;;;;;;;7.44;89.18;99483.37;106618;1272;22518;-61
2023/02/24 01:49:26;;;;;;;;;;;;;;;7.43;89.23;99485.73;106532;1274;24262;-61
2023/02/24 01:51:57;;;;;;;;;;;;;;;7.44;89.44;99483.10;106709;1278;22529;-61
2023/02/24 01:54:28;;;;;;;;;;;;;;;7.43;89.43;99478.02;106640;1278;22469;-61
2023/02/24 01:56:58;;;;;;;;;;;;;;;7.45;89.61;99475.34;106823;1278;24571;-59
2023/02/24 01:59:29;;;;;;;;;;;;;;;7.44;89.67;99474.56;106672;1278;22515;-60
2023/02/24 02:02:05;;;;;;;;;;;;;;;7.42;89.66;99470.49;106800;1278;22835;-63
2023/02/24 02:04:38;;;;;;;;;;;;;;;7.41;89.86;99467.30;106629;1278;22675;-62
2023/02/24 02:07:09;;;;;;;;;;;;;;;7.38;90.03;99461.23;106752;1272;24202;-61
2023/02/24 02:09:40;;;;;;;;;;;;;;;7.37;89.87;99460.40;106681;1278;25982;-61
2023/02/24 02:12:10;;;;;;;;;;;;;;;7.37;90.16;99458.03;106706;1278;22519;-60
2023/02/24 02:14:42;;;;;;;;;;;;;;;7.38;90.17;99454.91;106777;1263;25854;-61
2023/02/24 02:17:16;;;;;;;;;;;;;;;7.39;90.16;99451.11;106718;1275;24304;-60
2023/02/24 02:19:56;;;;;;;;;;;;;;;7.39;90.30;99451.25;106665;1275;22653;-61
2023/02/24 02:22:43;;;;;;;;;;;;;;;7.38;90.31;99449.36;106603;1278;22621;-60
2023/02/24 02:25:15;;;;;;;;;;;;;;;7.35;90.51;99452.64;106669;1278;22507;-60
2023/02/24 02:28:01;;;;;;;;;;;;;;;7.34;90.46;99445.20;106828;1278;22533;-61
2023/02/24 02:30:45;;;;;;;;;;;;;;;7.34;90.55;99443.33;106861;1274;22510;-60
2023/02/24 02:33:29;;;;;;;;;;;;;;;7.34;90.61;99440.30;106664;1275;23962;-60
2023/02/24 02:36:05;;;;;;;;;;;;;;;7.34;90.75;99438.40;106669;1271;22567;-61
2023/02/24 02:38:38;;;;;;;;;;;;;;;7.33;90.70;99440.77;106596;1276;22579;-59
2023/02/24 02:41:13;;;;;;;;;;;;;;;7.35;90.92;99437.04;106687;1272;26539;-59
2023/02/24 02:43:47;;;;;;;;;;;;;;;7.35;90.81;99436.08;106714;1278;23642;-61
2023/02/24 02:46:33;;;;;;;;;;;;;;;7.34;90.91;99436.22;106780;1278;22523;-61
2023/02/24 02:49:06;;;;;;;;;;;;;;;7.33;90.90;99426.96;106652;1278;22518;-61
2023/02/24 02:51:39;;;;;;;;;;;;;;;7.32;90.87;99428.27;106716;1278;24307;-62
2023/02/24 02:54:12;;;;;;;;;;;;;;;7.32;90.83;99423.02;106564;1276;22709;-59
2023/02/24 02:56:44;;;;;;;;;;;;;;;7.32;90.98;99420.88;106633;1278;23944;-61
2023/02/24 02:59:21;;;;;;;;;;;;;;;7.31;91.09;99420.36;106566;1271;22517;-59
2023/02/24 03:01:54;;;;;;;;;;;;;;;7.30;91.30;99417.61;106828;1268;22781;-60
2023/02/24 03:04:25;;;;;;;;;;;;;;;7.29;91.39;99412.96;106807;1264;22532;-60
2023/02/24 03:06:56;;;;;;;;;;;;;;;7.28;91.47;99406.47;106729;1278;22517;-61
2023/02/24 03:09:29;;;;;;;;;;;;;;;7.25;91.66;99404.70;106687;1271;22517;-61
2023/02/24 03:12:01;;;;;;;;;;;;;;;7.25;91.59;99405.20;106679;1274;25474;-59
2023/02/24 03:14:33;;;;;;;;;;;;;;;7.26;91.76;99401.80;106719;1278;22623;-60
2023/02/24 03:17:05;;;;;;;;;;;;;;;7.26;91.85;99403.22;106743;1278;24054;-61
2023/02/24 03:19:38;;;;;;;;;;;;;;;7.27;91.77;99397.59;106611;1271;24543;-61
2023/02/24 03:22:11;;;;;;;;;;;;;;;7.27;91.85;99400.21;106746;1278;22515;-60
2023/02/24 03:24:41;;;;;;;;;;;;;;;7.28;91.99;99395.83;106860;1278;22530;-62
2023/02/24 03:27:13;;;;;;;;;;;;;;;7.28;91.99;99391.70;106814;1267;22651;-61
2023/02/24 03:29:47;;;;;;;;;;;;;;;7.28;92.13;99394.46;106852;1278;22543;-61
2023/02/24 03:32:18;;;;;;;;;;;;;;;7.28;92.19;99392.64;106804;1279;22511;-60
2023/02/24 03:34:51;;;;;;;;;;;;;;;7.28;92.09;99390.17;106745;1270;22516;-61
2023/02/24 03:37:25;;;;;;;;;;;;;;;7.28;92.16;99386.34;106745;1269;24225;-59
2023/02/24 03:39:56;;;;;;;;;;;;;;;7.26;92.26;99382.77;106835;1278;22513;-59
2023/02/24 03:42:30;;;;;;;;;;;;;;;7.22;92.30;99378.30;106695;1278;24184;-61
2023/02/24 03:44:59;;;;;;;;;;;;;;;7.22;92.53;99376.33;106681;1267;22538;-59
2023/02/24 03:47:29;;;;;;;;;;;;;;;7.20;92.47;99374.13;106664;1272;22522;-59
2023/02/24 03:49:58;;;;;;;;;;;;;;;7.18;92.56;99371.83;106645;1260;22635;-60
2023/02/24 03:52:34;;;;;;;;;;;;;;;7.18;92.66;99369.59;106615;1272;22637;-59
2023/02/24 03:55:11;;;;;;;;;;;;;;;7.18;92.80;99369.25;106602;1278;22510;-61
2023/02/24 03:57:55;;;;;;;;;;;;;;;7.15;92.94;99367.48;106645;1278;24221;-61
2023/02/24 04:00:33;;;;;;;;;;;;;;;7.12;93.07;99365.84;106633;1274;22509;-61
2023/02/24 04:03:06;;;;;;;;;;;;;;;7.11;93.08;99359.69;106518;1264;22519;-61
2023/02/24 04:05:40;;;;;;;;;;;;;;;7.13;93.26;99359.76;106611;1276;24263;-61
2023/02/24 04:08:11;;;;;;;;;;;;;;;7.12;93.36;99353.76;106646;1274;22462;-60
2023/02/24 04:10:51;;;;;;;;;;;;;;;7.12;93.39;99353.48;106544;1278;25650;-60
2023/02/24 04:13:27;;;;;;;;;;;;;;;7.10;93.47;99351.98;106547;1272;22590;-61
2023/02/24 04:16:00;;;;;;;;;;;;;;;7.08;93.60;99349.48;106729;1278;22561;-62
2023/02/24 04:18:31;;;;;;;;;;;;;;;7.07;93.74;99343.04;106771;1267;22519;-59
2023/02/24 04:21:02;;;;;;;;;;;;;;;7.07;93.66;99338.52;106693;1273;24603;-61
2023/02/24 04:23:33;;;;;;;;;;;;;;;7.08;93.85;99337.72;106760;1278;24240;-61
2023/02/24 04:26:03;;;;;;;;;;;;;;;7.07;93.71;99336.09;106701;1264;22565;-60
2023/02/24 04:28:32;;;;;;;;;;;;;;;7.08;93.92;99332.36;106642;1264;22514;-59
2023/02/24 04:31:04;;;;;;;;;;;;;;;7.08;93.99;99329.55;106547;1278;22549;-61
2023/02/24 04:33:34;;;;;;;;;;;;;;;7.08;94.15;99326.10;106567;1278;25693;-60
2023/02/24 04:36:04;;;;;;;;;;;;;;;7.05;94.23;99324.40;106645;1278;25515;-60
2023/02/24 04:38:34;;;;;;;;;;;;;;;7.02;94.25;99323.23;106648;1278;22520;-62
2023/02/24 04:41:03;;;;;;;;;;;;;;;7.00;94.46;99317.39;106670;1278;22554;-61
2023/02/24 04:43:32;;;;;;;;;;;;;;;6.98;94.55;99316.85;106615;1277;22536;-59
2023/02/24 04:46:06;;;;;;;;;;;;;;;6.97;94.67;99316.22;106596;1273;24267;-60
2023/02/24 04:48:36;;;;;;;;;;;;;;;6.94;94.66;99314.76;106729;1278;24242;-59
2023/02/24 04:51:07;;;;;;;;;;;;;;;6.93;94.79;99311.70;106616;1278;25517;-60
2023/02/24 04:53:36;;;;;;;;;;;;;;;6.93;94.98;99310.45;106589;1275;24188;-61
2023/02/24 04:56:07;;;;;;;;;;;;;;;6.94;95.15;99310.52;106696;1278;22564;-61
2023/02/24 04:58:38;;;;;;;;;;;;;;;6.93;95.15;99308.14;106823;1276;22520;-60
2023/02/24 05:01:10;;;;;;;;;;;;;;;6.92;95.37;99303.21;106822;1278;22642;-60
2023/02/24 05:03:42;;;;;;;;;;;;;;;6.90;95.60;99304.35;106767;1278;24939;-61
2023/02/24 05:06:15;;;;;;;;;;;;;;;6.89;95.78;99295.75;106726;1273;25797;-61
2023/02/24 05:08:45;;;;;;;;;;;;;;;6.88;96.02;99294.66;106801;1277;22511;-57
2023/02/24 05:11:17;;;;;;;;;;;;;;;6.86;96.13;99289.17;106812;1274;24215;-61
2023/02/24 05:13:46;;;;;;;;;;;;;;;6.86;96.32;99286.27;106863;1278;26506;-60
2023/02/24 05:16:16;;;;;;;;;;;;;;;6.85;96.45;99284.88;106755;1278;25401;-59
2023/02/24 05:18:46;;;;;;;;;;;;;;;6.85;96.53;99281.81;106714;1278;22645;-61
2023/02/24 05:21:35;;;;;;;;;;;;;;;6.85;96.72;99282.20;106765;1278;26085;-62
2023/02/24 05:24:06;;;;;;;;;;;;;;;6.85;96.79;99278.77;106973;1276;26095;-63
2023/02/24 05:26:36;;;;;;;;;;;;;;;6.85;97.16;99275.85;110254;1273;22481;-62
2023/02/24 05:29:06;;;;;;;;;;;;;;;6.85;97.12;99279.58;106786;1277;25331;-63
2023/02/24 05:31:36;;;;;;;;;;;;;;;6.85;97.46;99277.83;110112;1271;22508;-62
2023/02/24 05:34:06;;;;;;;;;;;;;;;6.86;97.71;99278.98;107113;1271;25478;-65
2023/02/24 05:36:38;;;;;;;;;;;;;;;6.88;97.78;99276.10;106526;1269;22526;-65
2023/02/24 05:39:11;;;;;;;;;;;;;;;6.89;98.01;99278.34;106580;1267;22512;-58
2023/02/24 05:41:41;;;;;;;;;;;;;;;6.91;98.19;99275.45;106515;1265;22524;-64
2023/02/24 05:44:14;;;;;;;;;;;;;;;6.94;98.31;99276.36;106470;1277;25420;-64
2023/02/24 05:46:45;;;;;;;;;;;;;;;6.95;98.39;99273.71;106613;1264;25422;-59
2023/02/24 05:49:16;;;;;;;;;;;;;;;6.97;98.37;99275.52;106722;1273;25470;-67
2023/02/24 05:51:53;;;;;;;;;;;;;;;6.99;98.38;99272.63;106789;1277;22527;-61
2023/02/24 05:54:24;;;;;;;;;;;;;;;7.01;98.54;99270.48;106418;1263;22520;-61
2023/02/24 05:56:55;;;;;;;;;;;;;;;7.01;98.59;99270.15;109352;1273;22621;-61
2023/02/24 05:59:31;;;;;;;;;;;;;;;7.02;98.68;99272.32;106588;1276;25929;-60
2023/02/24 06:02:05;;;;;;;;;;;;;;;7.02;98.70;99271.11;106838;1278;22549;-61
2023/02/24 06:04:49;;;;;;;;;;;;;;;7.03;98.87;99268.95;106710;1276;23117;-61
2023/02/24 06:07:20;;;;;;;;;;;;;;;7.04;98.92;99267.15;106745;1273;22522;-62
2023/02/24 06:09:52;;;;;;;;;;;;;;;7.04;98.91;99273.23;106846;1278;22589;-61
2023/02/24 06:12:22;;;;;;;;;;;;;;;7.05;99.16;99270.66;106694;1278;24241;-66
2023/02/24 06:14:51;;;;;;;;;;;;;;;7.06;99.31;99271.33;106550;1272;24231;-59
2023/02/24 06:17:23;;;;;;;;;;;;;;;7.05;99.24;99271.42;106689;1278;24264;-60
2023/02/24 06:19:53;;;;;;;;;;;;;;;7.05;99.47;99268.80;106503;1265;22613;-60
2023/02/24 06:22:23;;;;;;;;;;;;;;;7.06;99.52;99270.11;106673;1264;22511;-60
2023/02/24 06:24:53;;;;;;;;;;;;;;;7.07;99.53;99274.27;106631;1278;23021;-58
2023/02/24 06:27:23;;;;;;;;;;;;;;;7.08;99.72;99277.47;106603;1276;24221;-58
2023/02/24 06:29:53;;;;;;;;;;;;;;;7.08;99.91;99276.66;106761;1276;22783;-61
2023/02/24 06:32:24;;;;;;;;;;;;;;;7.06;100.00;99278.04;106686;1263;22491;-62
2023/02/24 06:34:54;;;;;;;;;;;;;;;7.00;99.88;99281.55;106649;1277;24216;-60
2023/02/24 06:37:25;;;;;;;;;;;;;;;6.93;99.69;99286.85;106774;1273;22511;-60
2023/02/24 06:39:54;;;;;;;;;;;;;;;6.86;99.57;99284.54;106612;1278;22514;-59
2023/02/24 06:42:23;;;;;;;;;;;;;;;6.79;99.96;99285.27;106618;1278;22535;-61
2023/02/24 06:44:53;;;;;;;;;;;;;;;6.75;99.76;99278.99;106598;1277;25972;-59
2023/02/24 06:47:22;;;;;;;;;;;;;;;6.74;99.46;99282.41;106678;1278;25609;-58
2023/02/24 06:49:52;;;;;;;;;;;;;;;6.72;99.51;99280.25;106598;1274;22561;-59
2023/02/24 06:52:21;;;;;;;;;;;;;;;6.72;99.32;99277.83;106616;1272;22510;-61
2023/02/24 06:54:51;;;;;;;;;;;;;;;6.72;99.39;99284.23;106547;1275;22546;-61
2023/02/24 06:57:22;;;;;;;;;;;;;;;6.73;99.19;99281.73;106485;1265;22508;-60
2023/02/24 06:59:51;;;;;;;;;;;;;;;6.74;99.27;99282.55;106315;1264;25319;-60
2023/02/24 07:02:21;;;;;;;;;;;;;;;6.75;99.31;99280.50;106422;1271;22565;-62
2023/02/24 07:04:54;;;;;;;;;;;;;;;6.76;99.28;99278.71;106268;1271;22552;-59
2023/02/24 07:07:23;;;;;;;;;;;;;;;6.77;99.28;99278.32;106404;1269;25358;-62
2023/02/24 07:09:52;;;;;;;;;;;;;;;6.78;99.39;99278.84;106381;1278;23158;-62
2023/02/24 07:12:21;;;;;;;;;;;;;;;6.79;99.41;99282.59;106305;1273;24217;-61
2023/02/24 07:14:51;;;;;;;;;;;;;;;6.79;99.35;99283.60;106414;1264;22523;-61
2023/02/24 07:17:22;;;;;;;;;;;;;;;6.79;99.51;99284.35;106417;1264;25350;-59
2023/02/24 07:19:53;;;;;;;;;;;;;;;6.78;99.47;99283.02;106489;1265;22505;-60
2023/02/24 07:22:23;;;;;;;;;;;;;;;6.77;99.74;99284.92;106435;1263;22516;-61
2023/02/24 07:24:59;;;;;;;;;;;;;;;6.73;99.72;99283.88;106460;1272;22473;-60
2023/02/24 07:27:28;;;;;;;;;;;;;;;6.68;99.25;99279.12;106558;1271;22510;-60
2023/02/24 07:29:58;;;;;;;;;;;;;;;6.65;99.03;99279.16;106350;1278;22533;-59
2023/02/24 07:32:27;;;;;;;;;;;;;;;6.61;98.97;99279.42;106446;1278;22588;-59
2023/02/24 07:34:58;;;;;;;;;;;;;;;6.58;99.02;99277.20;106341;1272;25519;-60
2023/02/24 07:37:30;;;;;;;;;;;;;;;6.55;98.81;99276.23;106472;1264;22522;-60
2023/02/24 07:40:00;;;;;;;;;;;;;;;6.52;98.52;99275.06;106390;1278;25344;-59
2023/02/24 07:42:34;;;;;;;;;;;;;;;6.48;98.27;99268.66;106441;1278;22515;-61
2023/02/24 07:45:04;;;;;;;;;;;;;;;6.47;98.38;99266.11;106419;1263;24286;-59
2023/02/24 07:47:34;;;;;;;;;;;;;;;6.46;98.35;99266.71;106374;1264;22524;-59
2023/02/24 07:50:09;;;;;;;;;;;;;;;6.46;98.29;99266.80;106437;1278;22590;-59
2023/02/24 07:52:39;;;;;;;;;;;;;;;6.45;98.16;99262.84;106422;1264;22514;-59
2023/02/24 07:55:09;;;;;;;;;;;;;;;6.43;98.08;99259.58;106623;1256;22517;-60
2023/02/24 07:57:40;;;;;;;;;;;;;;;6.42;98.03;99256.94;106438;1278;22507;-60
2023/02/24 08:00:17;;;;;;;;;;;;;;;6.42;98.10;99258.39;106432;1264;22517;-60
2023/02/24 08:02:48;;;;;;;;;;;;;;;6.42;98.20;99258.48;106311;1264;23258;-59
2023/02/24 08:05:18;;;;;;;;;;;;;;;6.40;98.00;99259.41;106426;1278;24255;-59
2023/02/24 08:07:48;;;;;;;;;;;;;;;6.39;98.02;99261.86;106336;1278;22521;-59
2023/02/24 08:10:24;;;;;;;;;;;;;;;6.37;97.71;99255.96;106426;1278;24223;-60
2023/02/24 08:12:55;;;;;;;;;;;;;;;6.34;97.62;99255.27;106471;1278;22522;-58
2023/02/24 08:15:32;;;;;;;;;;;;;;;6.32;97.80;99253.05;106338;1264;22514;-60
2023/02/24 08:18:03;;;;;;;;;;;;;;;6.30;97.81;99252.02;106556;1278;25311;-61
2023/02/24 08:20:50;;;;;;;;;;;;;;;6.30;97.89;99243.40;106492;1271;22522;-60
2023/02/24 08:23:22;;;;;;;;;;;;;;;6.31;98.00;99239.08;106375;1278;22644;-59
2023/02/24 08:25:52;;;;;;;;;;;;;;;6.32;97.97;99234.41;106453;1264;22540;-60
2023/02/24 08:28:25;;;;;;;;;;;;;;;6.33;98.20;99233.18;106439;1272;22523;-60
2023/02/24 08:30:55;;;;;;;;;;;;;;;6.34;98.16;99234.00;106391;1278;24217;-61
2023/02/24 08:33:28;;;;;;;;;;;;;;;6.36;98.19;99236.85;106451;1264;22598;-62
2023/02/24 08:36:00;;;;;;;;;;;;;;;6.37;98.14;99236.13;106410;1278;25236;-60
2023/02/24 08:38:40;;;;;;;;;;;;;;;6.39;98.13;99230.27;106556;1271;25254;-59
2023/02/24 08:41:16;;;;;;;;;;;;;;;6.40;98.25;99227.27;106509;1272;22586;-62
2023/02/24 08:43:46;;;;;;;;;;;;;;;6.43;98.32;99228.88;106547;1267;22532;-60
2023/02/24 08:46:18;;;;;;;;;;;;;;;6.45;98.30;99223.87;106434;1264;24677;-60
2023/02/24 08:48:54;;;;;;;;;;;;;;;6.46;98.06;99224.65;106531;1278;27356;-57
2023/02/24 08:51:27;;;;;;;;;;;;;;;6.47;98.16;99227.70;106518;1278;22505;-59
2023/02/24 08:53:58;;;;;;;;;;;;;;;6.49;98.13;99221.67;106359;1278;259657;-60
2023/02/24 08:56:28;;;;;;;;;;;;;;;6.50;98.03;99222.61;106493;1263;22515;-61
2023/02/24 08:59:04;;;;;;;;;;;;;;;6.50;97.96;99220.00;106391;1263;24093;-59
2023/02/24 09:01:35;;;;;;;;;;;;;;;6.51;98.05;99224.55;106451;1271;24359;-61
2023/02/24 09:04:06;;;;;;;;;;;;;;;6.51;97.87;99222.08;106412;1278;25298;-60
2023/02/24 09:06:38;;;;;;;;;;;;;;;6.52;97.86;99216.03;106444;1278;22511;-60
2023/02/24 09:09:17;;;;;;;;;;;;;;;6.52;97.63;99204.29;106559;1274;22524;-62
2023/02/24 09:11:48;;;;;;;;;;;;;;;6.52;97.87;99211.75;106352;1278;22514;-60
2023/02/24 09:14:19;;;;;;;;;;;;;;;6.53;97.97;99205.02;106522;1274;25333;-59
2023/02/24 09:17:02;;;;;;;;;;;;;;;6.56;98.14;99204.48;106381;1271;22515;-60
2023/02/24 09:22:31;;;;;;;;;;;;;;;6.62;97.96;99197.05;106377;1272;24304;-60
2023/02/24 09:27:53;;;;;;;;;;;;;;;6.68;97.95;99190.47;106384;1278;22527;-60
2023/02/24 09:30:37;;;;;;;;;;;;;;;6.70;97.87;99183.14;106500;1263;22588;-60
2023/02/24 09:33:16;;;;;;;;;;;;;;;6.74;97.91;99174.92;106380;1278;24237;-62
2023/02/24 09:35:49;;;;;;;;;;;;;;;6.78;97.67;99179.29;106373;1275;22547;-60
2023/02/24 09:38:23;;;;;;;;;;;;;;;6.80;97.28;99177.30;106444;1264;25356;-61
2023/02/24 09:40:56;;;;;;;;;;;;;;;6.80;96.98;99181.55;106337;1278;22519;-60
2023/02/24 09:43:29;;;;;;;;;;;;;;;6.80;96.49;99177.55;106439;1272;25469;-60
2023/02/24 09:46:00;;;;;;;;;;;;;;;6.81;96.60;99172.11;106405;1278;23096;-59
2023/02/24 09:48:42;;;;;;;;;;;;;;;6.80;96.46;99170.09;106565;1273;22618;-61
2023/02/24 09:51:21;;;;;;;;;;;;;;;6.79;96.35;99164.02;106316;1275;23079;-60
2023/02/24 09:53:53;;;;;;;;;;;;;;;6.79;96.41;99160.04;106339;1278;22563;-61
2023/02/24 09:56:27;;;;;;;;;;;;;;;6.80;96.49;99154.55;106403;1274;22595;-61
2023/02/24 09:59:09;;;;;;;;;;;;;;;6.81;96.68;99152.90;106706;1260;22625;-59
2023/02/24 10:01:42;;;;;;;;;;;;;;;6.83;96.48;99154.05;106326;1275;24271;-60
2023/02/24 10:04:21;;;;;;;;;;;;;;;6.83;96.24;99149.01;106361;1272;23152;-59
2023/02/24 10:06:54;;;;;;;;;;;;;;;6.82;95.85;99154.89;106386;1278;22514;-61
2023/02/24 10:09:26;;;;;;;;;;;;;;;6.81;95.89;99149.63;106548;1278;25669;-61
2023/02/24 10:12:02;;;;;;;;;;;;;;;6.82;95.98;99147.08;106488;1275;22609;-60
2023/02/24 10:14:37;;;;;;;;;;;;;;;6.81;95.75;99146.19;106486;1278;25367;-60
2023/02/24 10:17:23;;;;;;;;;;;;;;;6.80;95.64;99141.95;106460;1275;25301;-59
2023/02/24 10:19:59;;;;;;;;;;;;;;;6.80;95.88;99138.67;106331;1278;25236;-60
2023/02/24 10:22:49;;;;;;;;;;;;;;;6.81;96.05;99137.83;106390;1272;22513;-62
2023/02/24 10:25:22;;;;;;;;;;;;;;;6.82;96.21;99134.67;106347;1272;25325;-60
2023/02/24 10:27:58;;;;;;;;;;;;;;;6.84;96.18;99130.66;106523;1278;22608;-61
2023/02/24 10:30:40;;;;;;;;;;;;;;;6.85;96.15;99125.73;106666;1271;22509;-59
2023/02/24 10:33:25;;;;;;;;;;;;;;;6.84;95.61;99118.91;106300;1274;24835;-60
2023/02/24 10:36:07;;;;;;;;;;;;;;;6.81;95.29;99125.42;106370;1278;22526;-60
2023/02/24 10:38:39;;;;;;;;;;;;;;;6.68;94.20;99114.78;106506;1278;22521;-62
2023/02/24 10:41:10;;;;;;;;;;;;;;;6.52;94.01;99119.39;106524;1278;22518;-62
2023/02/24 10:43:45;;;;;;;;;;;;;;;6.37;94.47;99111.27;106490;1272;22511;-60
2023/02/24 10:46:25;;;;;;;;;;;;;;;6.28;94.57;99105.86;106432;1264;22554;-61
2023/02/24 10:48:59;;;;;;;;;;;;;;;6.21;94.70;99099.85;106464;1278;24248;-61
2023/02/24 10:51:31;;;;;;;;;;;;;;;6.18;95.05;99097.08;106567;1264;24338;-60
2023/02/24 10:54:21;;;;;;;;;;;;;;;6.19;95.33;99090.36;106405;1265;23554;-61
2023/02/24 10:57:06;;;;;;;;;;;;;;;6.23;95.49;99085.62;106301;1278;22510;-62
2023/02/24 11:03:05;;;;;;;;;;;;;;;6.30;95.12;99074.01;106337;1265;22504;-60
2023/02/24 11:05:43;;;;;;;;;;;;;;;6.33;95.27;99073.52;106312;1265;23520;-59
2023/02/24 11:08:35;;;;;;;;;;;;;;;6.34;95.20;99071.66;106401;1274;22589;-59
2023/02/24 11:11:24;;;;;;;;;;;;;;;6.35;95.21;99064.63;106337;1274;22524;-60
2023/02/24 11:19:37;;;;;;;;;;;;;;;6.40;95.48;99041.83;106320;1274;24366;-60
2023/02/24 11:22:08;;;;;;;;;;;;;;;6.43;95.78;99034.11;106440;1272;25611;-60
2023/02/24 11:24:38;;;;;;;;;;;;;;;6.44;95.70;99025.86;106345;1278;22766;-59
2023/02/24 11:27:10;;;;;;;;;;;;;;;6.47;95.95;99016.44;106386;1278;22501;-59
2023/02/24 11:29:47;;;;;;;;;;;;;;;6.51;96.15;99010.55;106407;1275;25352;-59
2023/02/24 11:32:24;;;;;;;;;;;;;;;6.57;96.11;99005.33;106352;1271;24276;-59
2023/02/24 11:34:57;;;;;;;;;;;;;;;6.60;96.00;98995.90;106238;1278;22515;-61
2023/02/24 11:37:36;;;;;;;;;;;;;;;6.62;95.80;98994.17;106505;1264;22523;-59
2023/02/24 11:40:08;;;;;;;;;;;;;;;6.63;95.85;98986.62;106430;1278;22551;-61
2023/02/24 11:42:42;;;;;;;;;;;;;;;6.67;95.92;98985.32;106347;1274;24390;-60
2023/02/24 11:45:18;;;;;;;;;;;;;;;6.71;95.82;98987.05;106342;1278;22522;-59
2023/02/24 11:47:49;;;;;;;;;;;;;;;6.75;95.77;98983.79;106394;1265;24260;-60
2023/02/24 11:50:25;;;;;;;;;;;;;;;6.79;95.94;98985.14;106356;1271;22522;-59
2023/02/24 11:52:55;;;;;;;;;;;;;;;6.82;95.40;98986.83;106477;1275;24269;-62
2023/02/24 11:55:28;;;;;;;;;;;;;;;6.82;94.89;98980.73;106444;1277;22517;-60
2023/02/24 11:58:00;;;;;;;;;;;;;;;6.81;94.48;98980.46;106365;1278;25384;-60
2023/02/24 12:00:33;;;;;;;;;;;;;;;6.80;94.57;98981.68;106576;1256;25507;-60
2023/02/24 12:03:08;;;;;;;;;;;;;;;6.80;94.50;98973.20;106488;1263;22702;-61
2023/02/24 12:05:39;;;;;;;;;;;;;;;6.80;94.28;98965.73;106511;1271;22505;-61
2023/02/24 12:08:12;;;;;;;;;;;;;;;6.80;93.93;98963.80;106280;1272;24979;-59
2023/02/24 12:10:46;;;;;;;;;;;;;;;6.79;94.45;98959.25;106382;1274;24276;-58
2023/02/24 12:13:21;;;;;;;;;;;;;;;6.78;94.46;98954.86;106359;1256;22509;-59
2023/02/24 12:15:55;;;;;;;;;;;;;;;6.75;93.82;98950.29;106320;1278;23020;-59
2023/02/24 12:18:27;;;;;;;;;;;;;;;6.70;93.64;98947.70;106338;1264;26561;-60
2023/02/24 12:21:00;;;;;;;;;;;;;;;6.70;93.72;98947.29;106320;1278;25505;-61
2023/02/24 12:23:31;;;;;;;;;;;;;;;6.67;93.65;98942.02;106421;1272;22510;-59
2023/02/24 12:26:08;;;;;;;;;;;;;;;6.65;93.63;98937.15;106303;1274;22525;-61
2023/02/24 12:28:57;;;;;;;;;;;;;;;6.65;93.49;98928.87;106332;1267;22518;-61
2023/02/24 12:31:32;;;;;;;;;;;;;;;6.64;93.67;98925.74;106284;1272;24248;-60
2023/02/24 12:34:07;;;;;;;;;;;;;;;6.66;93.93;98925.31;106339;1274;24356;-60
2023/02/24 12:36:46;;;;;;;;;;;;;;;6.69;93.96;98928.56;106387;1278;22518;-58
2023/02/24 12:39:20;;;;;;;;;;;;;;;6.69;93.94;98929.69;106285;1271;22564;-62
2023/02/24 12:41:55;;;;;;;;;;;;;;;6.70;93.53;98925.56;106264;1271;22508;-59
2023/02/24 12:44:29;;;;;;;;;;;;;;;6.73;93.74;98922.21;106345;1271;22977;-60
2023/02/24 12:47:03;;;;;;;;;;;;;;;6.76;93.69;98912.36;106351;1278;22530;-59
2023/02/24 12:49:39;;;;;;;;;;;;;;;6.78;93.67;98906.27;106355;1271;22846;-59
2023/02/24 12:52:12;;;;;;;;;;;;;;;6.82;93.60;98896.52;106388;1272;27114;-60
2023/02/24 12:54:46;;;;;;;;;;;;;;;6.87;93.56;98890.21;106349;1278;24324;-60
2023/02/24 12:57:19;;;;;;;;;;;;;;;6.93;93.68;98888.23;106295;1278;24367;-59
2023/02/24 12:59:49;;;;;;;;;;;;;;;6.99;93.84;98879.17;106261;1277;22511;-59
2023/02/24 13:02:22;;;;;;;;;;;;;;;7.07;93.55;98869.27;106260;1275;25236;-61
2023/02/24 13:04:56;;;;;;;;;;;;;;;7.14;93.21;98869.84;106290;1278;22514;-60
2023/02/24 13:07:39;;;;;;;;;;;;;;;7.20;93.21;98866.23;106301;1272;22585;-59
2023/02/24 13:10:17;;;;;;;;;;;;;;;7.26;92.44;98866.44;106038;1275;25336;-59
2023/02/24 13:12:49;;;;;;;;;;;;;;;7.28;91.88;98863.52;106136;1282;22517;-60
2023/02/24 13:15:20;;;;;;;;;;;;;;;7.28;91.85;98861.92;106128;1282;22848;-60
2023/02/24 13:17:51;;;;;;;;;;;;;;;7.32;92.23;98859.23;105988;1278;22569;-60
2023/02/24 13:20:28;;;;;;;;;;;;;;;7.38;92.47;98856.01;106082;1267;22611;-59
2023/02/24 13:22:58;;;;;;;;;;;;;;;7.44;92.46;98842.63;106029;1277;22524;-59
2023/02/24 13:25:30;;;;;;;;;;;;;;;7.50;92.29;98834.55;106114;1282;22727;-60
2023/02/24 13:28:01;;;;;;;;;;;;;;;7.56;91.73;98832.84;106120;1282;22520;-59
2023/02/24 13:30:33;;;;;;;;;;;;;;;7.60;91.60;98824.89;106282;1274;25326;-60
2023/02/24 13:33:04;;;;;;;;;;;;;;;7.62;91.11;98823.04;106028;1282;25353;-61
2023/02/24 13:35:35;;;;;;;;;;;;;;;7.64;91.09;98821.70;106080;1282;22660;-59